Time;durP1;ratioP1;P1;durP2;ratioP2;P2;SDS_P1;SDS_P2;PMS_P1;PMS_P2;Temp;Humidity;BMP_temperature;BMP_pressure;BME280_temperature;BME280_humidity;BME280_pressure;Samples;Min_cycle;Max_cycle;Signal;HPM_P1;HPM_P2
2023/06/16 00:01:14;;;;;;;14.27;4.45;;;;;;;;;;5045540;28;20033;-80
2023/06/16 00:04:10;;;;;;;14.25;4.55;;;;;;;;;;5048376;28;20017;-80
2023/06/16 00:06:42;;;;;;;9.73;4.63;;;;;;;;;;5040983;28;20570;-82
2023/06/16 00:09:13;;;;;;;8.20;4.82;;;;;;;;;;5048499;28;20068;-79
2023/06/16 00:11:49;;;;;;;;;;;;;;;;;;;;;
2023/06/16 00:14:18;;;;;;;14.90;4.95;;;;;;;;;;5049248;28;20053;-80
2023/06/16 00:16:46;;;;;;;12.07;5.00;;;;;;;;;;5041709;28;20047;-81
2023/06/16 00:19:13;;;;;;;8.40;4.38;;;;;;;;;;5049650;28;20060;-79
2023/06/16 00:21:41;;;;;;;12.82;4.22;;;;;;;;;;5048510;28;20033;-82
2023/06/16 00:24:08;;;;;;;10.70;4.03;;;;;;;;;;5049060;28;20093;-81
2023/06/16 00:26:37;;;;;;;8.38;4.40;;;;;;;;;;5044717;28;20051;-82
2023/06/16 00:29:14;;;;;;;;;;;;;;;;;;;;;
2023/06/16 00:31:40;;;;;;;15.23;5.15;;;;;;;;;;5047718;28;20045;-82
2023/06/16 00:34:11;;;;;;;8.00;4.55;;;;;;;;;;5068976;28;20021;-80
2023/06/16 00:36:39;;;;;;;11.00;5.13;;;;;;;;;;5067942;28;20021;-79
2023/06/16 00:39:05;;;;;;;8.10;4.88;;;;;;;;;;5045425;28;20017;-82
2023/06/16 00:41:36;;;;;;;10.75;5.10;;;;;;;;;;5045837;28;20072;-79
2023/06/16 00:44:03;;;;;;;8.43;4.70;;;;;;;;;;5047500;28;20021;-79
2023/06/16 00:46:30;;;;;;;9.57;5.45;;;;;;;;;;5049283;28;20025;-81
2023/06/16 00:48:57;;;;;;;10.55;4.82;;;;;;;;;;5051703;28;20026;-80
2023/06/16 00:51:24;;;;;;;12.95;5.40;;;;;;;;;;5046965;28;20060;-81
2023/06/16 00:53:50;;;;;;;11.52;4.93;;;;;;;;;;5045777;28;20032;-80
2023/06/16 00:56:16;;;;;;;8.43;5.07;;;;;;;;;;5046599;28;20021;-81
2023/06/16 00:58:45;;;;;;;11.38;4.47;;;;;;;;;;5049562;28;20047;-80
2023/06/16 01:01:12;;;;;;;8.27;5.13;;;;;;;;;;5047710;28;20059;-80
2023/06/16 01:03:39;;;;;;;7.87;4.60;;;;;;;;;;5046785;28;20079;-81
2023/06/16 01:06:07;;;;;;;7.47;4.85;;;;;;;;;;5042224;28;20048;-80
2023/06/16 01:08:43;;;;;;;10.90;5.40;;;;;;;;;;5048167;28;20048;-80
2023/06/16 01:11:16;;;;;;;10.85;4.97;;;;;;;;;;5050689;28;20014;-79
2023/06/16 01:13:45;;;;;;;15.23;5.50;;;;;;;;;;5047544;28;20022;-80
2023/06/16 01:16:11;;;;;;;10.87;4.83;;;;;;;;;;5046246;28;20021;-80
2023/06/16 01:18:39;;;;;;;7.30;4.68;;;;;;;;;;5047139;28;20406;-79
2023/06/16 01:21:24;;;;;;;14.07;4.73;;;;;;;;;;5044456;28;20028;-81
2023/06/16 01:24:02;;;;;;;7.87;4.83;;;;;;;;;;5045967;28;20020;-80
2023/06/16 01:26:30;;;;;;;10.03;4.67;;;;;;;;;;5051671;28;20042;-79
2023/06/16 01:28:56;;;;;;;7.72;4.53;;;;;;;;;;5044773;28;20037;-82
2023/06/16 01:31:28;;;;;;;8.73;4.90;;;;;;;;;;5049250;28;20026;-80
2023/06/16 01:33:55;;;;;;;10.80;4.65;;;;;;;;;;5044372;28;20021;-79
2023/06/16 01:36:21;;;;;;;8.63;4.37;;;;;;;;;;5048591;28;20045;-80
2023/06/16 01:38:48;;;;;;;10.57;4.97;;;;;;;;;;5046329;28;20014;-80
2023/06/16 01:41:16;;;;;;;14.00;4.87;;;;;;;;;;5065489;23;20034;-80
2023/06/16 01:43:42;;;;;;;8.27;5.23;;;;;;;;;;5028936;28;20045;-80
2023/06/16 01:46:08;;;;;;;9.00;4.93;;;;;;;;;;5027129;28;20011;-79
2023/06/16 01:48:35;;;;;;;9.13;4.40;;;;;;;;;;5025626;28;20101;-80
2023/06/16 01:51:04;;;;;;;10.83;4.83;;;;;;;;;;5024864;28;20027;-80
2023/06/16 01:53:30;;;;;;;6.10;4.23;;;;;;;;;;5032739;28;20093;-80
2023/06/16 01:55:56;;;;;;;10.57;4.83;;;;;;;;;;5025930;28;20102;-82
2023/06/16 01:58:23;;;;;;;11.90;4.60;;;;;;;;;;5025157;28;20018;-79
2023/06/16 02:00:55;;;;;;;9.53;4.77;;;;;;;;;;5029601;28;20090;-79
2023/06/16 02:03:21;;;;;;;;;;;;;;;;;;5033006;28;20029;-80
2023/06/16 02:05:50;;;;;;;10.27;4.40;;;;;;;;;;5025025;28;19948;-81
2023/06/16 02:08:17;;;;;;;7.67;4.50;;;;;;;;;;5030907;28;20017;-81
2023/06/16 02:10:43;;;;;;;10.30;4.20;;;;;;;;;;5026527;28;20018;-80
2023/06/16 02:13:09;;;;;;;10.00;4.93;;;;;;;;;;5028496;28;20037;-80
2023/06/16 02:15:35;;;;;;;8.63;4.53;;;;;;;;;;5031014;28;20022;-79
2023/06/16 02:18:02;;;;;;;10.80;5.23;;;;;;;;;;5026696;28;20010;-80
2023/06/16 02:20:30;;;;;;;8.67;4.83;;;;;;;;;;5027226;28;20034;-79
2023/06/16 02:22:59;;;;;;;11.03;5.00;;;;;;;;;;5028091;28;20070;-81
2023/06/16 02:25:25;;;;;;;12.83;5.03;;;;;;;;;;5032215;28;20033;-79
2023/06/16 02:27:51;;;;;;;9.73;4.23;;;;;;;;;;5033179;28;20033;-79
2023/06/16 02:30:17;;;;;;;7.47;4.63;;;;;;;;;;5028993;28;20045;-80
2023/06/16 02:32:44;;;;;;;8.23;4.60;;;;;;;;;;5033639;28;20022;-80
2023/06/16 02:35:10;;;;;;;9.70;4.73;;;;;;;;;;5035108;28;20022;-79
2023/06/16 02:37:36;;;;;;;14.47;5.13;;;;;;;;;;5034225;28;20026;-80
2023/06/16 02:40:06;;;;;;;12.97;5.10;;;;;;;;;;5032592;28;20101;-80
2023/06/16 02:42:41;;;;;;;8.70;4.77;;;;;;;;;;5033017;28;20025;-79
2023/06/16 02:45:08;;;;;;;7.30;4.90;;;;;;;;;;5047327;28;20030;-79
2023/06/16 02:48:12;;;;;;;9.40;4.33;;;;;;;;;;5032085;28;20034;-80
2023/06/16 02:50:39;;;;;;;11.93;4.70;;;;;;;;;;5034891;28;20029;-79
2023/06/16 02:53:05;;;;;;;13.67;5.07;;;;;;;;;;5033393;28;20029;-79
2023/06/16 02:55:32;;;;;;;7.73;4.90;;;;;;;;;;5030717;28;20040;-79
2023/06/16 02:58:00;;;;;;;9.70;5.03;;;;;;;;;;5035373;28;20053;-80
2023/06/16 03:00:28;;;;;;;12.23;5.27;;;;;;;;;;5032591;28;20026;-80
2023/06/16 03:03:24;;;;;;;11.20;5.63;;;;;;;;;;5032425;28;20041;-79
2023/06/16 03:05:50;;;;;;;8.37;5.30;;;;;;;;;;5034033;28;20294;-80
2023/06/16 03:08:18;;;;;;;9.23;5.20;;;;;;;;;;5035570;28;20010;-80
2023/06/16 03:10:44;;;;;;;8.97;4.63;;;;;;;;;;5039498;28;20030;-79
2023/06/16 03:13:10;;;;;;;10.50;4.60;;;;;;;;;;5032197;28;20064;-80
2023/06/16 03:15:36;;;;;;;12.23;4.80;;;;;;;;;;5033951;28;20026;-79
2023/06/16 03:18:05;;;;;;;9.77;5.33;;;;;;;;;;5033458;28;20015;-80
2023/06/16 03:20:31;;;;;;;7.37;4.40;;;;;;;;;;5036063;28;20049;-80
2023/06/16 03:22:57;;;;;;;11.60;4.57;;;;;;;;;;5035898;28;20022;-80
2023/06/16 03:25:23;;;;;;;8.47;4.63;;;;;;;;;;5036187;28;21169;-79
2023/06/16 03:27:50;;;;;;;10.33;4.60;;;;;;;;;;5039359;28;20077;-80
2023/06/16 03:30:16;;;;;;;18.40;5.80;;;;;;;;;;5034186;28;20030;-80
2023/06/16 03:32:44;;;;;;;9.57;4.60;;;;;;;;;;5028650;28;20145;-79
2023/06/16 03:35:12;;;;;;;7.00;4.30;;;;;;;;;;5035122;28;20014;-80
2023/06/16 03:37:41;;;;;;;10.37;5.20;;;;;;;;;;5031043;28;20070;-79
2023/06/16 03:40:07;;;;;;;6.43;4.67;;;;;;;;;;5033343;28;20022;-79
2023/06/16 03:42:39;;;;;;;9.20;4.50;;;;;;;;;;5031124;28;20026;-79
2023/06/16 03:45:06;;;;;;;8.57;4.70;;;;;;;;;;5046272;28;20014;-80
2023/06/16 03:47:34;;;;;;;11.07;5.03;;;;;;;;;;5033479;28;20018;-79
2023/06/16 03:50:03;;;;;;;10.63;5.47;;;;;;;;;;5034317;28;20037;-79
2023/06/16 03:52:29;;;;;;;12.30;5.83;;;;;;;;;;5034632;28;20009;-80
2023/06/16 03:54:58;;;;;;;9.60;5.00;;;;;;;;;;5033161;28;20040;-81
2023/06/16 03:57:24;;;;;;;11.90;5.60;;;;;;;;;;5031415;28;20061;-80
2023/06/16 03:59:50;;;;;;;9.53;5.50;;;;;;;;;;5029687;28;20041;-80
2023/06/16 04:02:19;;;;;;;8.33;5.20;;;;;;;;;;5029202;28;20034;-79
2023/06/16 04:04:47;;;;;;;12.13;6.23;;;;;;;;;;5047262;28;20010;-79
2023/06/16 04:07:18;;;;;;;12.87;5.27;;;;;;;;;;5031097;28;20053;-80
2023/06/16 04:09:45;;;;;;;14.55;5.80;;;;;;;;;;5030621;28;20029;-80
2023/06/16 04:12:11;;;;;;;11.90;5.57;;;;;;;;;;5031976;28;20046;-79
2023/06/16 04:14:37;;;;;;;9.33;4.37;;;;;;;;;;5030148;28;20025;-80
2023/06/16 04:17:03;;;;;;;10.03;5.03;;;;;;;;;;5030460;28;20025;-80
2023/06/16 04:19:34;;;;;;;10.47;5.27;;;;;;;;;;5028646;28;20053;-79
2023/06/16 04:22:00;;;;;;;11.70;4.90;;;;;;;;;;5033472;28;20033;-79
2023/06/16 04:24:29;;;;;;;11.43;5.20;;;;;;;;;;5027212;28;20061;-80
2023/06/16 04:26:58;;;;;;;8.73;4.93;;;;;;;;;;5034091;28;20018;-80
2023/06/16 04:29:26;;;;;;;8.07;4.63;;;;;;;;;;5029023;28;20022;-81
2023/06/16 04:31:55;;;;;;;7.93;4.60;;;;;;;;;;5030673;28;20026;-79
2023/06/16 04:34:23;;;;;;;9.73;5.53;;;;;;;;;;5032322;28;20022;-79
2023/06/16 04:36:49;;;;;;;10.63;5.07;;;;;;;;;;5036619;28;20022;-80
2023/06/16 04:39:18;;;;;;;8.03;4.77;;;;;;;;;;5032948;28;20026;-80
2023/06/16 04:41:46;;;;;;;8.17;4.63;;;;;;;;;;5029055;28;20030;-81
2023/06/16 04:44:14;;;;;;;11.63;5.23;;;;;;;;;;5032696;28;20017;-80
2023/06/16 04:46:40;;;;;;;12.00;5.37;;;;;;;;;;5044256;28;20034;-80
2023/06/16 04:49:06;;;;;;;12.40;6.27;;;;;;;;;;5030833;28;20037;-82
2023/06/16 04:51:33;;;;;;;9.40;5.83;;;;;;;;;;5027749;28;20026;-81
2023/06/16 04:54:00;;;;;;;8.03;5.90;;;;;;;;;;5032114;28;20029;-80
2023/06/16 04:56:26;;;;;;;9.33;5.97;;;;;;;;;;5032076;28;20033;-80
2023/06/16 04:58:54;;;;;;;12.07;6.13;;;;;;;;;;5026829;28;20026;-80
2023/06/16 05:01:26;;;;;;;9.53;5.17;;;;;;;;;;5031105;28;20038;-80
2023/06/16 05:03:54;;;;;;;9.10;5.35;;;;;;;;;;5046460;28;20057;-80
2023/06/16 05:06:20;;;;;;;7.13;4.87;;;;;;;;;;5032239;28;20034;-80
2023/06/16 05:08:46;;;;;;;11.87;5.63;;;;;;;;;;5029409;28;20018;-80
2023/06/16 05:11:15;;;;;;;15.10;6.23;;;;;;;;;;5028981;28;20032;-81
2023/06/16 05:13:51;;;;;;;;;;;;;;;;;;;;;
2023/06/16 05:16:17;;;;;;;11.20;6.07;;;;;;;;;;5029129;28;20042;-80
2023/06/16 05:18:43;;;;;;;14.93;5.20;;;;;;;;;;5026403;28;20054;-80
2023/06/16 05:21:09;;;;;;;15.97;5.67;;;;;;;;;;5029116;28;20030;-80
2023/06/16 05:23:42;;;;;;;16.00;5.87;;;;;;;;;;5027821;28;20041;-82
2023/06/16 05:26:08;;;;;;;9.97;5.77;;;;;;;;;;5029511;28;20032;-81
2023/06/16 05:28:34;;;;;;;15.03;5.73;;;;;;;;;;5043072;28;20200;-81
2023/06/16 05:31:00;;;;;;;12.23;6.23;;;;;;;;;;5030335;28;20006;-80
2023/06/16 05:33:28;;;;;;;8.27;5.17;;;;;;;;;;5042776;28;20045;-81
2023/06/16 05:36:12;;;;;;;10.40;5.93;;;;;;;;;;5045886;28;20046;-80
2023/06/16 05:38:42;;;;;;;10.55;5.53;;;;;;;;;;5029795;28;20034;-81
2023/06/16 05:41:08;;;;;;;10.52;6.07;;;;;;;;;;5026031;28;20303;-80
2023/06/16 05:43:34;;;;;;;14.85;6.03;;;;;;;;;;5043935;28;20011;-80
2023/06/16 05:46:02;;;;;;;17.05;6.13;;;;;;;;;;5028921;28;20150;-81
2023/06/16 05:48:28;;;;;;;9.85;6.38;;;;;;;;;;5024960;28;20070;-80
2023/06/16 05:50:54;;;;;;;13.20;5.90;;;;;;;;;;5025969;28;20023;-81
2023/06/16 05:53:20;;;;;;;10.73;5.65;;;;;;;;;;5028325;28;20057;-81
2023/06/16 05:55:49;;;;;;;11.02;6.32;;;;;;;;;;5028469;28;20026;-80
2023/06/16 05:58:15;;;;;;;11.30;5.55;;;;;;;;;;5026211;28;20034;-80
2023/06/16 06:00:43;;;;;;;7.88;5.13;;;;;;;;;;5043136;28;20053;-85
2023/06/16 06:03:09;;;;;;;12.52;6.53;;;;;;;;;;5043923;28;20022;-82
2023/06/16 06:05:40;;;;;;;18.67;6.55;;;;;;;;;;5030796;28;20014;-80
2023/06/16 06:08:07;;;;;;;9.25;4.95;;;;;;;;;;5046355;28;20038;-80
2023/06/16 06:10:33;;;;;;;12.15;5.25;;;;;;;;;;5028609;28;20022;-82
2023/06/16 06:13:05;;;;;;;9.20;5.45;;;;;;;;;;5033985;28;20018;-82
2023/06/16 06:15:34;;;;;;;20.27;5.97;;;;;;;;;;5034285;28;20065;-80
2023/06/16 06:18:00;;;;;;;24.88;6.05;;;;;;;;;;5037544;28;20033;-81
2023/06/16 06:20:26;;;;;;;12.00;5.88;;;;;;;;;;5033749;28;20026;-81
2023/06/16 06:23:00;;;;;;;7.30;4.88;;;;;;;;;;5047030;28;20049;-81
2023/06/16 06:25:26;;;;;;;14.05;5.35;;;;;;;;;;5028403;28;20026;-81
2023/06/16 06:27:58;;;;;;;8.85;4.85;;;;;;;;;;5032791;28;20034;-80
2023/06/16 06:30:33;;;;;;;14.80;4.88;;;;;;;;;;5032341;28;20101;-82
2023/06/16 06:33:00;;;;;;;10.48;6.05;;;;;;;;;;5040805;28;20034;-80
2023/06/16 06:35:29;;;;;;;13.43;5.55;;;;;;;;;;5044441;28;20106;-82
2023/06/16 06:37:58;;;;;;;10.55;4.75;;;;;;;;;;5033804;28;20033;-81
2023/06/16 06:40:24;;;;;;;10.30;5.28;;;;;;;;;;5031647;28;20045;-80
2023/06/16 06:42:53;;;;;;;12.10;6.10;;;;;;;;;;5030450;28;20058;-82
2023/06/16 06:45:19;;;;;;;10.18;5.22;;;;;;;;;;5030032;28;20013;-82
2023/06/16 06:47:47;;;;;;;10.60;5.47;;;;;;;;;;5028986;28;20093;-82
2023/06/16 06:50:16;;;;;;;9.52;5.57;;;;;;;;;;5031323;28;20022;-81
2023/06/16 06:52:58;;;;;;;9.75;4.93;;;;;;;;;;5043991;28;20102;-80
2023/06/16 06:55:27;;;;;;;;;;;;;;;;;;5029036;28;20036;-80
2023/06/16 06:57:53;;;;;;;10.13;5.72;;;;;;;;;;5044562;28;19916;-80
2023/06/16 07:00:20;;;;;;;12.80;5.45;;;;;;;;;;5031365;28;20026;-81
2023/06/16 07:02:48;;;;;;;7.45;4.95;;;;;;;;;;5027990;28;20026;-81
2023/06/16 07:05:15;;;;;;;16.92;5.97;;;;;;;;;;5030227;28;20041;-80
2023/06/16 07:07:41;;;;;;;14.85;5.40;;;;;;;;;;5027881;28;20026;-82
2023/06/16 07:10:07;;;;;;;10.77;5.40;;;;;;;;;;5043446;28;20029;-82
2023/06/16 07:12:33;;;;;;;16.10;4.70;;;;;;;;;;5045930;28;20049;-81
2023/06/16 07:14:59;;;;;;;8.35;4.60;;;;;;;;;;5044383;28;20096;-81
2023/06/16 07:17:30;;;;;;;10.55;4.47;;;;;;;;;;5024888;28;20014;-81
2023/06/16 07:19:58;;;;;;;9.45;4.55;;;;;;;;;;5030349;28;20040;-80
2023/06/16 07:22:24;;;;;;;8.88;4.65;;;;;;;;;;5036940;28;20042;-82
2023/06/16 07:24:50;;;;;;;11.57;4.88;;;;;;;;;;5029940;28;20014;-80
2023/06/16 07:27:16;;;;;;;13.15;5.03;;;;;;;;;;5037324;28;20022;-81
2023/06/16 07:29:45;;;;;;;20.35;4.75;;;;;;;;;;5031458;28;20062;-80
2023/06/16 07:32:20;;;;;;;9.80;4.80;;;;;;;;;;5030538;28;20018;-82
2023/06/16 07:34:49;;;;;;;9.93;5.05;;;;;;;;;;5028452;28;20018;-80
2023/06/16 07:37:15;;;;;;;11.95;4.63;;;;;;;;;;5032125;28;20030;-80
2023/06/16 07:39:45;;;;;;;7.55;4.30;;;;;;;;;;5028075;28;20026;-80
2023/06/16 07:42:11;;;;;;;10.43;4.40;;;;;;;;;;5032752;28;20052;-80
2023/06/16 07:44:37;;;;;;;7.53;3.47;;;;;;;;;;5028680;28;20034;-80
2023/06/16 07:47:06;;;;;;;10.57;4.03;;;;;;;;;;5032472;28;20014;-80
2023/06/16 07:49:32;;;;;;;14.20;4.53;;;;;;;;;;5032667;28;20058;-80
2023/06/16 07:51:58;;;;;;;9.85;4.20;;;;;;;;;;5029505;28;20065;-80
2023/06/16 07:54:31;;;;;;;9.93;4.03;;;;;;;;;;5027753;28;20030;-80
2023/06/16 07:56:57;;;;;;;10.35;3.70;;;;;;;;;;5032746;28;20041;-81
2023/06/16 07:59:23;;;;;;;14.63;4.40;;;;;;;;;;5029714;28;20021;-80
2023/06/16 08:01:52;;;;;;;13.75;4.82;;;;;;;;;;5041770;28;20030;-81
2023/06/16 08:04:18;;;;;;;10.57;4.00;;;;;;;;;;5030479;28;20022;-80
2023/06/16 08:06:44;;;;;;;7.60;3.85;;;;;;;;;;5027551;28;20026;-80
2023/06/16 08:09:13;;;;;;;9.48;4.00;;;;;;;;;;5027021;28;20061;-82
2023/06/16 08:11:39;;;;;;;5.47;3.53;;;;;;;;;;5031362;28;20033;-80
2023/06/16 08:14:05;;;;;;;8.43;3.90;;;;;;;;;;5043691;28;20030;-80
2023/06/16 08:16:37;;;;;;;10.25;4.40;;;;;;;;;;5031256;28;20030;-80
2023/06/16 08:19:03;;;;;;;10.43;4.20;;;;;;;;;;5029171;28;20022;-81
2023/06/16 08:21:29;;;;;;;11.13;4.18;;;;;;;;;;5026607;28;20022;-80
2023/06/16 08:23:55;;;;;;;7.53;3.75;;;;;;;;;;5027960;28;20033;-80
2023/06/16 08:26:21;;;;;;;6.85;3.90;;;;;;;;;;5025420;28;20057;-80
2023/06/16 08:28:47;;;;;;;12.27;3.90;;;;;;;;;;5043366;28;20014;-80
2023/06/16 08:31:13;;;;;;;9.55;4.43;;;;;;;;;;5032300;28;20033;-80
2023/06/16 08:33:39;;;;;;;7.07;3.55;;;;;;;;;;5030358;28;20038;-80
2023/06/16 08:36:05;;;;;;;5.60;3.97;;;;;;;;;;5027243;28;20033;-80
2023/06/16 08:38:32;;;;;;;8.07;3.60;;;;;;;;;;5025458;28;20046;-79
2023/06/16 08:40:58;;;;;;;6.55;3.55;;;;;;;;;;5042925;28;20033;-80
2023/06/16 08:43:24;;;;;;;5.88;3.00;;;;;;;;;;5026836;28;20041;-80
2023/06/16 08:45:51;;;;;;;7.70;3.63;;;;;;;;;;5027581;28;20029;-80
2023/06/16 08:48:17;;;;;;;9.98;3.63;;;;;;;;;;5029735;28;20022;-81
2023/06/16 08:50:44;;;;;;;8.18;3.67;;;;;;;;;;5027979;28;20026;-80
2023/06/16 08:53:12;;;;;;;7.32;3.47;;;;;;;;;;5032805;28;20023;-80
2023/06/16 08:55:42;;;;;;;5.65;3.30;;;;;;;;;;5025407;28;20041;-80
2023/06/16 08:58:12;;;;;;;10.98;3.05;;;;;;;;;;5041345;28;20022;-80
2023/06/16 09:00:39;;;;;;;4.40;3.42;;;;;;;;;;5042473;28;20064;-80
2023/06/16 09:03:08;;;;;;;5.38;3.38;;;;;;;;;;5036087;28;20045;-80
2023/06/16 09:05:34;;;;;;;6.43;3.15;;;;;;;;;;5043357;28;20018;-80
2023/06/16 09:08:01;;;;;;;7.10;3.30;;;;;;;;;;5027413;28;20246;-81
2023/06/16 09:10:27;;;;;;;7.63;3.10;;;;;;;;;;5044433;28;20028;-80
2023/06/16 09:12:53;;;;;;;6.93;3.28;;;;;;;;;;5027968;28;20034;-80
2023/06/16 09:15:21;;;;;;;4.88;2.88;;;;;;;;;;5042477;28;20090;-80
2023/06/16 09:17:47;;;;;;;5.47;3.00;;;;;;;;;;5031978;28;20026;-80
2023/06/16 09:20:15;;;;;;;6.82;3.33;;;;;;;;;;5030814;28;20022;-80
2023/06/16 09:22:41;;;;;;;8.10;3.17;;;;;;;;;;5043893;28;20058;-80
2023/06/16 09:25:09;;;;;;;6.07;2.78;;;;;;;;;;5028900;28;20093;-82
2023/06/16 09:27:43;;;;;;;7.32;3.20;;;;;;;;;;5028781;28;20043;-82
2023/06/16 09:30:09;;;;;;;4.80;2.85;;;;;;;;;;5025333;28;20064;-81
2023/06/16 09:32:39;;;;;;;7.47;3.20;;;;;;;;;;5029399;28;20057;-81
2023/06/16 09:35:18;;;;;;;5.38;3.47;;;;;;;;;;5025603;28;20061;-81
2023/06/16 09:37:44;;;;;;;4.82;2.70;;;;;;;;;;5036219;28;20040;-82
2023/06/16 09:40:11;;;;;;;6.18;2.88;;;;;;;;;;5019479;28;20022;-85
2023/06/16 09:42:41;;;;;;;6.75;2.80;;;;;;;;;;5013884;28;20100;-84
2023/06/16 09:45:12;;;;;;;3.47;2.70;;;;;;;;;;5024539;28;20086;-80
2023/06/16 09:47:38;;;;;;;5.43;3.35;;;;;;;;;;5042902;28;20029;-81
2023/06/16 09:50:07;;;;;;;6.68;3.25;;;;;;;;;;5021017;28;20121;-83
2023/06/16 09:52:34;;;;;;;5.80;3.40;;;;;;;;;;5018443;28;20053;-82
2023/06/16 09:55:04;;;;;;;6.28;2.80;;;;;;;;;;5018469;28;20056;-81
2023/06/16 09:57:30;;;;;;;8.05;3.28;;;;;;;;;;5030313;28;20057;-81
2023/06/16 09:59:57;;;;;;;5.93;3.33;;;;;;;;;;5019848;28;20026;-85
2023/06/16 10:02:24;;;;;;;7.88;2.92;;;;;;;;;;5021798;28;20451;-82
2023/06/16 10:04:54;;;;;;;10.38;3.70;;;;;;;;;;5023191;28;20029;-83
2023/06/16 10:07:20;;;;;;;3.88;2.72;;;;;;;;;;5027082;28;20393;-83
2023/06/16 10:09:50;;;;;;;10.98;3.05;;;;;;;;;;5019181;28;20100;-83
2023/06/16 10:12:18;;;;;;;4.35;3.00;;;;;;;;;;5021609;28;20037;-81
2023/06/16 10:14:45;;;;;;;5.03;3.20;;;;;;;;;;5023507;28;20058;-83
2023/06/16 10:17:11;;;;;;;7.30;2.78;;;;;;;;;;5023152;28;20022;-81
2023/06/16 10:19:37;;;;;;;5.90;2.80;;;;;;;;;;5018082;28;20058;-85
2023/06/16 10:22:04;;;;;;;23.77;5.65;;;;;;;;;;5032869;28;20042;-80
2023/06/16 10:24:31;;;;;;;5.00;2.95;;;;;;;;;;5021329;28;20046;-82
2023/06/16 10:26:58;;;;;;;5.20;3.17;;;;;;;;;;5017663;28;20450;-84
2023/06/16 10:29:25;;;;;;;4.18;3.05;;;;;;;;;;5013794;28;20121;-83
2023/06/16 10:32:02;;;;;;;10.02;3.47;;;;;;;;;;5013135;28;20463;-85
2023/06/16 10:34:28;;;;;;;5.50;3.05;;;;;;;;;;5011545;28;20545;-87
2023/06/16 10:36:54;;;;;;;5.43;2.95;;;;;;;;;;5002104;28;20030;-88
2023/06/16 10:39:23;;;;;;;9.45;3.05;;;;;;;;;;5010521;28;20172;-87
2023/06/16 10:41:51;;;;;;;8.40;3.42;;;;;;;;;;4998904;28;20350;-88
2023/06/16 10:44:33;;;;;;;7.15;3.30;;;;;;;;;;5007058;28;20030;-88
2023/06/16 10:47:05;;;;;;;5.57;3.00;;;;;;;;;;5002012;28;20030;-88
2023/06/16 10:49:31;;;;;;;6.60;3.20;;;;;;;;;;5001952;28;20454;-86
2023/06/16 10:51:59;;;;;;;7.03;3.20;;;;;;;;;;5007197;28;20463;-87
2023/06/16 10:54:37;;;;;;;4.38;3.05;;;;;;;;;;5012671;28;21212;-86
2023/06/16 10:57:03;;;;;;;6.57;2.90;;;;;;;;;;5023151;28;20029;-88
2023/06/16 10:59:30;;;;;;;3.08;2.42;;;;;;;;;;5005743;28;20029;-88
2023/06/16 11:01:59;;;;;;;5.50;3.00;;;;;;;;;;5008258;28;20030;-88
2023/06/16 11:04:26;;;;;;;4.60;2.80;;;;;;;;;;5020537;28;20050;-87
2023/06/16 11:07:18;;;;;;;5.15;2.90;;;;;;;;;;5015010;28;20108;-87
2023/06/16 11:09:44;;;;;;;;;;;;;;;;;;5010731;28;20077;-88
2023/06/16 11:12:10;;;;;;;4.72;2.65;;;;;;;;;;5007376;28;19918;-89
2023/06/16 11:14:36;;;;;;;7.50;3.08;;;;;;;;;;5005498;28;20027;-88
2023/06/16 11:17:03;;;;;;;6.40;3.05;;;;;;;;;;5008742;28;20966;-88
2023/06/16 11:19:29;;;;;;;8.38;2.80;;;;;;;;;;5016238;28;20018;-87
2023/06/16 11:21:55;;;;;;;5.07;2.38;;;;;;;;;;5022932;28;20126;-87
2023/06/16 11:24:21;;;;;;;4.95;2.97;;;;;;;;;;5005922;28;20018;-88
2023/06/16 11:26:47;;;;;;;6.25;3.40;;;;;;;;;;5019119;28;20017;-86
2023/06/16 11:29:17;;;;;;;4.43;2.90;;;;;;;;;;5013533;28;20022;-87
2023/06/16 11:31:46;;;;;;;3.80;2.83;;;;;;;;;;5014412;28;20025;-88
2023/06/16 11:34:14;;;;;;;5.88;2.78;;;;;;;;;;5009742;28;20027;-87
2023/06/16 11:36:46;;;;;;;7.07;2.28;;;;;;;;;;5005636;28;20034;-90
2023/06/16 11:39:12;;;;;;;6.50;2.80;;;;;;;;;;5013744;28;20029;-86
2023/06/16 11:41:38;;;;;;;4.78;3.20;;;;;;;;;;5003036;28;20096;-86
2023/06/16 11:44:04;;;;;;;5.00;3.22;;;;;;;;;;5012502;28;20033;-89
2023/06/16 11:46:32;;;;;;;4.90;2.88;;;;;;;;;;5008904;28;20056;-88
2023/06/16 11:49:00;;;;;;;5.75;2.65;;;;;;;;;;5004306;28;20112;-87
2023/06/16 11:51:27;;;;;;;8.18;3.38;;;;;;;;;;5021123;28;20125;-86
2023/06/16 11:53:56;;;;;;;7.60;3.17;;;;;;;;;;5010098;28;20033;-87
2023/06/16 11:56:23;;;;;;;5.38;3.08;;;;;;;;;;5009228;28;20112;-89
2023/06/16 11:58:49;;;;;;;7.50;3.55;;;;;;;;;;5010154;28;20030;-88
2023/06/16 12:01:18;;;;;;;7.00;3.17;;;;;;;;;;5014964;28;20092;-88
2023/06/16 12:03:48;;;;;;;4.40;2.90;;;;;;;;;;5005077;28;20045;-89
2023/06/16 12:06:15;;;;;;;3.40;2.58;;;;;;;;;;5006544;28;20040;-87
2023/06/16 12:08:41;;;;;;;5.53;2.80;;;;;;;;;;5009116;28;20093;-88
2023/06/16 12:11:08;;;;;;;4.57;3.40;;;;;;;;;;5009610;28;20046;-87
2023/06/16 12:13:34;;;;;;;10.20;3.60;;;;;;;;;;5009265;28;20030;-87
2023/06/16 12:16:04;;;;;;;6.35;3.20;;;;;;;;;;5008663;28;20033;-88
2023/06/16 12:18:33;;;;;;;9.63;2.95;;;;;;;;;;5024141;28;20036;-89
2023/06/16 12:21:12;;;;;;;7.30;3.38;;;;;;;;;;5012868;28;20038;-89
2023/06/16 12:23:38;;;;;;;4.22;3.15;;;;;;;;;;5021407;28;20026;-88
2023/06/16 12:26:04;;;;;;;6.18;2.90;;;;;;;;;;5012416;28;20053;-88
2023/06/16 12:28:30;;;;;;;4.82;3.03;;;;;;;;;;5005937;28;20030;-87
2023/06/16 12:31:00;;;;;;;6.20;3.42;;;;;;;;;;5011467;28;20033;-87
2023/06/16 12:33:26;;;;;;;5.25;3.05;;;;;;;;;;5013086;28;20030;-85
2023/06/16 12:35:52;;;;;;;3.97;3.05;;;;;;;;;;5014359;28;20049;-88
2023/06/16 12:38:30;;;;;;;6.63;3.30;;;;;;;;;;5005271;28;20470;-87
2023/06/16 12:40:56;;;;;;;8.45;3.58;;;;;;;;;;5012194;28;20454;-84
2023/06/16 12:43:24;;;;;;;10.20;3.35;;;;;;;;;;5008391;28;20129;-86
2023/06/16 12:45:53;;;;;;;6.38;3.20;;;;;;;;;;5006323;28;20030;-85
2023/06/16 12:48:19;;;;;;;3.75;2.88;;;;;;;;;;5005814;28;20038;-87
2023/06/16 12:50:45;;;;;;;7.82;3.35;;;;;;;;;;5005672;28;20068;-86
2023/06/16 12:53:11;;;;;;;4.03;3.28;;;;;;;;;;5009762;28;20034;-86
2023/06/16 12:55:37;;;;;;;7.40;3.45;;;;;;;;;;5006283;28;20595;-87
2023/06/16 12:58:03;;;;;;;3.65;3.10;;;;;;;;;;5012242;28;20109;-86
2023/06/16 13:00:29;;;;;;;5.60;2.92;;;;;;;;;;5003719;28;20054;-86
2023/06/16 13:02:56;;;;;;;5.05;3.20;;;;;;;;;;5015567;28;20159;-87
2023/06/16 13:05:24;;;;;;;4.97;3.33;;;;;;;;;;5006207;28;20040;-86
2023/06/16 13:07:53;;;;;;;6.05;3.50;;;;;;;;;;5009982;28;20041;-86
2023/06/16 13:10:19;;;;;;;7.68;3.63;;;;;;;;;;5007608;28;20030;-86
2023/06/16 13:12:48;;;;;;;14.98;3.33;;;;;;;;;;5008976;28;20033;-87
2023/06/16 13:15:14;;;;;;;8.95;3.88;;;;;;;;;;5020433;28;20030;-86
2023/06/16 13:17:40;;;;;;;5.28;3.33;;;;;;;;;;5009390;28;20107;-87
2023/06/16 13:20:07;;;;;;;6.15;3.60;;;;;;;;;;5011852;28;20033;-86
2023/06/16 13:22:33;;;;;;;6.57;3.78;;;;;;;;;;5012074;28;20037;-87
2023/06/16 13:24:59;;;;;;;4.72;3.40;;;;;;;;;;5008011;28;20765;-86
2023/06/16 13:27:25;;;;;;;5.93;3.33;;;;;;;;;;5010770;28;20058;-87
2023/06/16 13:29:51;;;;;;;7.30;3.40;;;;;;;;;;5013265;28;20045;-87
2023/06/16 13:32:17;;;;;;;5.93;3.65;;;;;;;;;;5006881;28;20033;-86
2023/06/16 13:34:43;;;;;;;4.75;3.53;;;;;;;;;;5012532;28;20048;-86
2023/06/16 13:37:08;;;;;;;7.95;3.83;;;;;;;;;;5013242;28;20034;-85
2023/06/16 13:39:34;;;;;;;8.80;3.25;;;;;;;;;;5011928;28;20045;-86
2023/06/16 13:42:00;;;;;;;5.60;3.75;;;;;;;;;;5007612;28;20035;-86
2023/06/16 13:44:26;;;;;;;3.90;3.03;;;;;;;;;;5001629;28;20026;-85
2023/06/16 13:46:52;;;;;;;8.23;3.83;;;;;;;;;;5010200;28;20022;-86
2023/06/16 13:49:18;;;;;;;5.53;3.72;;;;;;;;;;5021695;28;20113;-86
2023/06/16 13:51:44;;;;;;;8.88;3.90;;;;;;;;;;5004475;28;20034;-87
2023/06/16 13:54:11;;;;;;;5.88;3.55;;;;;;;;;;5007871;28;20057;-86
2023/06/16 13:56:37;;;;;;;7.95;3.40;;;;;;;;;;5001291;28;20031;-86
2023/06/16 13:59:03;;;;;;;6.07;3.72;;;;;;;;;;5006415;28;20026;-86
2023/06/16 14:01:29;;;;;;;4.05;3.28;;;;;;;;;;5009165;28;20125;-87
2023/06/16 14:03:55;;;;;;;6.22;3.63;;;;;;;;;;5005168;28;20030;-86
2023/06/16 14:06:21;;;;;;;7.63;3.58;;;;;;;;;;5010154;28;20105;-87
2023/06/16 14:08:49;;;;;;;6.88;3.80;;;;;;;;;;5024369;28;20442;-86
2023/06/16 14:11:15;;;;;;;7.63;4.32;;;;;;;;;;5000241;28;20053;-85
2023/06/16 14:13:43;;;;;;;5.50;3.55;;;;;;;;;;5005574;28;20374;-87
2023/06/16 14:16:09;;;;;;;8.20;3.97;;;;;;;;;;5003155;28;20691;-87
2023/06/16 14:18:35;;;;;;;5.97;3.50;;;;;;;;;;5010910;28;20485;-86
2023/06/16 14:21:01;;;;;;;5.72;3.50;;;;;;;;;;5006793;28;20041;-86
2023/06/16 14:23:27;;;;;;;6.72;4.18;;;;;;;;;;5003806;28;20117;-86
2023/06/16 14:25:53;;;;;;;5.13;3.80;;;;;;;;;;5011355;28;20022;-86
2023/06/16 14:28:19;;;;;;;9.93;3.58;;;;;;;;;;5008696;28;20109;-86
2023/06/16 14:30:45;;;;;;;6.97;3.63;;;;;;;;;;5008837;28;20026;-87
2023/06/16 14:33:11;;;;;;;6.57;4.13;;;;;;;;;;5014234;28;20040;-86
2023/06/16 14:35:37;;;;;;;5.68;3.67;;;;;;;;;;5015399;28;20470;-86
2023/06/16 14:38:03;;;;;;;4.82;3.58;;;;;;;;;;5005520;28;20044;-85
2023/06/16 14:40:29;;;;;;;6.10;4.18;;;;;;;;;;5013018;28;20030;-84
2023/06/16 14:42:55;;;;;;;8.38;4.43;;;;;;;;;;5022742;28;20069;-86
2023/06/16 14:45:22;;;;;;;6.72;3.42;;;;;;;;;;5009967;28;20026;-85
2023/06/16 14:47:48;;;;;;;7.72;3.78;;;;;;;;;;5006431;28;20026;-86